This is the latest recevied weather packets stored in our database for station/object KF5JED-13. If no packets are shown the sender has not sent any weather packets the latest 10 day(s).
| Time | Temp. | Humidity | Pressure | Rain* | Wind** | Luminosity | Snow |
|---|---|---|---|---|---|---|---|
| 1777691016 | 8.89° C | 75% | 1021.5 hPa | 0 mm | - | 0 W/m² | - |
| 1777690712 | 8.89° C | 75% | 1021.4 hPa | 0 mm | - | 0 W/m² | - |
| 1777690410 | 8.89° C | 75% | 1021.2 hPa | 0 mm | - | 0 W/m² | - |
| 1777690108 | 8.89° C | 75% | 1021.4 hPa | 0 mm | - | 0 W/m² | - |
| 1777689806 | 8.89° C | 75% | 1021.2 hPa | 0 mm | - | 0 W/m² | - |
| 1777689503 | 8.89° C | 75% | 1021.1 hPa | 0 mm | - | 0 W/m² | - |
| 1777689201 | 8.89° C | 74% | 1021 hPa | 0 mm | - | 0 W/m² | - |
| 1777688899 | 8.89° C | 74% | 1021 hPa | 0 mm | - | 0 W/m² | - |
| 1777688595 | 8.89° C | 73% | 1021.2 hPa | 0 mm | - | 0 W/m² | - |
| 1777688292 | 8.89° C | 73% | 1021 hPa | 0 mm | - | 0 W/m² | - |
| 1777687989 | 8.89° C | 72% | 1021.1 hPa | 0 mm | - | 0 W/m² | - |
| 1777674050 | 11.11° C | 72% | 1020 hPa | 0 mm | - | 190 W/m² | - |
| 1777673746 | 11.11° C | 73% | 1019.8 hPa | 0 mm | - | 177 W/m² | - |
| 1777673444 | 11.11° C | 74% | 1019.9 hPa | 0 mm | - | 146 W/m² | - |
| 1777671319 | 10.56° C | 75% | 1019.8 hPa | 0 mm | - | 170 W/m² | - |
| 1777669499 | 11.67° C | 70% | 1019.9 hPa | 0 mm | - | 212 W/m² | - |
| 1777667377 | 11.67° C | 65% | 1020.1 hPa | 0 mm | - | 322 W/m² | - |
| 1777666164 | 11.67° C | 62% | 1020.2 hPa | 0 mm | - | 305 W/m² | - |
| 1777665861 | 12.22° C | 62% | 1020.4 hPa | 0 mm | - | 248 W/m² | - |
| 1777662527 | 11.67° C | 65% | 1020.2 hPa | 0 mm | - | 177 W/m² | - |
| 1777661310 | 12.22° C | 62% | 1020.1 hPa | 0 mm | - | 349 W/m² | - |
| 1777660701 | 12.78° C | 58% | 1020.4 hPa | 0 mm | - | 310 W/m² | - |
| 1777660095 | 12.22° C | 56% | 1020.2 hPa | 0 mm | - | 396 W/m² | - |
| 1777659489 | 12.78° C | 57% | 1020.2 hPa | 0 mm | - | 351 W/m² | - |
| 1777659186 | 12.22° C | 58% | 1020.5 hPa | 0 mm | - | 308 W/m² | - |
* Rain latest hour (hover to see other rain measurements)
** Current wind speed in m/s (hover to see current wind gust speed)